createdAt,value
2022-11-20T00:02:06.914Z,99885.69
2022-11-20T00:04:35.359Z,99886.44
2022-11-20T00:07:03.834Z,99884.31
2022-11-20T00:09:32.177Z,99885.81
2022-11-20T00:12:00.515Z,99881.03
2022-11-20T00:14:28.854Z,99878.59
2022-11-20T00:16:57.337Z,99886.56
2022-11-20T00:19:27.176Z,99874.06
2022-11-20T00:21:56.594Z,99880.75
2022-11-20T00:24:24.921Z,99871.78
2022-11-20T00:26:53.264Z,99879.41
2022-11-20T00:29:21.841Z,99886.56
2022-11-20T00:31:50.403Z,99886.41
2022-11-20T00:34:18.863Z,99879.25
2022-11-20T00:36:48.764Z,99874.06
2022-11-20T00:39:17.180Z,99873.88
2022-11-20T00:41:45.584Z,99852.13
2022-11-20T00:44:13.956Z,99877.22
2022-11-20T00:46:42.342Z,99872.88
2022-11-20T00:49:10.712Z,99881.50
2022-11-20T00:51:39.061Z,99878.91
2022-11-20T00:54:08.929Z,99874.94
2022-11-20T00:56:37.276Z,99885.97
2022-11-20T00:59:05.706Z,99887.44
2022-11-20T01:01:35.320Z,99888.50
2022-11-20T01:04:03.787Z,99885.06
2022-11-20T01:06:34.323Z,99889.31
2022-11-20T01:09:05.447Z,99894.50
2022-11-20T01:11:37.146Z,99893.69
2022-11-20T01:14:07.903Z,99892.81
2022-11-20T01:16:38.970Z,99892.66
2022-11-20T01:19:08.716Z,99897.94
2022-11-20T01:21:39.095Z,99899.13
2022-11-20T01:24:09.833Z,99896.84
2022-11-20T01:26:41.541Z,99890.25
2022-11-20T01:29:15.413Z,99898.81
2022-11-20T01:31:44.721Z,99897.13
2022-11-20T01:34:15.286Z,99894.69
2022-11-20T01:36:44.458Z,99882.00
2022-11-20T01:39:16.225Z,99893.34
2022-11-20T01:42:09.608Z,99885.38
2022-11-20T01:44:54.842Z,99882.41
2022-11-20T01:47:29.590Z,99881.31
2022-11-20T01:50:02.206Z,99881.16
2022-11-20T01:52:35.029Z,99887.00
2022-11-20T01:55:08.876Z,99876.59
2022-11-20T01:57:40.301Z,99884.28
2022-11-20T02:00:11.171Z,99886.06
2022-11-20T02:02:41.437Z,99876.28
2022-11-20T02:05:19.859Z,99879.63
2022-11-20T02:07:49.096Z,99880.88
2022-11-20T02:10:17.805Z,99869.63
2022-11-20T02:13:05.027Z,99872.97
2022-11-20T02:15:35.639Z,99873.50
2022-11-20T02:18:04.285Z,99876.34
2022-11-20T02:20:32.831Z,99871.31
2022-11-20T02:23:07.656Z,99866.19
2022-11-20T02:25:38.605Z,99873.28
2022-11-20T02:28:08.155Z,99863.97
2022-11-20T02:30:36.548Z,99867.53
2022-11-20T02:33:05.029Z,99872.78
2022-11-20T02:35:48.434Z,99865.78
2022-11-20T02:38:17.270Z,99868.94
2022-11-20T02:40:51.401Z,99875.72
2022-11-20T02:43:22.707Z,99869.56
2022-11-20T02:45:51.092Z,99873.78
2022-11-20T02:48:19.644Z,99874.53
2022-11-20T02:50:47.966Z,99865.00
2022-11-20T02:53:16.352Z,99860.06
2022-11-20T02:55:44.794Z,99861.78
2022-11-20T02:58:14.669Z,99873.69
2022-11-20T03:00:43.467Z,99876.13
2022-11-20T03:03:11.802Z,99872.72
2022-11-20T03:05:40.214Z,99866.78
2022-11-20T03:08:08.598Z,99868.44
2022-11-20T03:10:36.975Z,99860.06
2022-11-20T03:13:05.317Z,99863.41
2022-11-20T03:15:35.422Z,99866.91
2022-11-20T03:18:03.833Z,99840.88
2022-11-20T03:20:32.269Z,99865.22
2022-11-20T03:23:00.561Z,99867.81
2022-11-20T03:25:28.995Z,99861.78
2022-11-20T03:27:57.618Z,99867.06
2022-11-20T03:30:30.416Z,99866.34
2022-11-20T03:33:01.396Z,99862.16
2022-11-20T03:35:29.783Z,99861.25
2022-11-20T03:37:58.118Z,99863.84
2022-11-20T03:40:26.549Z,99864.75
2022-11-20T03:42:54.990Z,99860.47
2022-11-20T03:45:23.370Z,99854.69
2022-11-20T03:47:51.885Z,99858.03
2022-11-20T03:50:21.777Z,99872.78
2022-11-20T03:52:50.113Z,99865.94
2022-11-20T03:55:18.507Z,99864.41
2022-11-20T03:57:46.836Z,99867.91
2022-11-20T04:00:16.515Z,99865.34
2022-11-20T04:02:44.825Z,99862.06
2022-11-20T04:05:13.203Z,99866.31
2022-11-20T04:07:43.201Z,99869.00
2022-11-20T04:10:11.707Z,99869.00
2022-11-20T04:12:40.089Z,99871.63
2022-11-20T04:15:09.156Z,99876.13
2022-11-20T04:17:37.522Z,99864.91
2022-11-20T04:20:06.872Z,99876.16
2022-11-20T04:22:35.289Z,99883.25
2022-11-20T04:25:05.524Z,99873.03
2022-11-20T04:27:33.992Z,99874.13
2022-11-20T04:30:02.408Z,99869.72
2022-11-20T04:32:30.930Z,99874.91
2022-11-20T04:34:59.352Z,99880.16
2022-11-20T04:37:27.833Z,99883.66
2022-11-20T04:39:56.217Z,99880.63
2022-11-20T04:42:31.699Z,99884.50
2022-11-20T04:45:00.182Z,99873.41
2022-11-20T04:47:28.536Z,99869.84
2022-11-20T04:49:57.002Z,99861.38
2022-11-20T04:52:25.542Z,99862.09
2022-11-20T04:54:55.094Z,99863.00
2022-11-20T04:57:23.554Z,99858.78
2022-11-20T04:59:53.319Z,99863.06
2022-11-20T05:02:21.832Z,99863.06
2022-11-20T05:04:50.481Z,99851.03
2022-11-20T05:07:19.104Z,99845.88
2022-11-20T05:09:47.508Z,99852.78
2022-11-20T05:12:15.859Z,99840.84
2022-11-20T05:14:44.282Z,99837.47
2022-11-20T05:17:14.419Z,99850.66
2022-11-20T05:19:42.792Z,99843.03
2022-11-20T05:22:11.109Z,99841.88
2022-11-20T05:24:39.541Z,99843.56
2022-11-20T05:27:07.962Z,99841.06
2022-11-20T05:29:36.429Z,99842.66
2022-11-20T05:32:04.824Z,99842.53
2022-11-20T05:34:34.618Z,99838.13
2022-11-20T05:37:03.074Z,99828.84
2022-11-20T05:39:31.600Z,99837.31
2022-11-20T05:42:13.797Z,99838.13
2022-11-20T05:44:42.268Z,99834.34
2022-11-20T05:47:10.601Z,99833.63
2022-11-20T05:49:40.435Z,99837.00
2022-11-20T05:52:08.749Z,99841.69
2022-11-20T05:54:37.198Z,99830.69
2022-11-20T05:57:05.801Z,99833.38
2022-11-20T05:59:34.176Z,99827.41
2022-11-20T06:02:02.533Z,99825.75
2022-11-20T06:04:31.242Z,99825.63
2022-11-20T06:07:01.027Z,99820.38
2022-11-20T06:09:29.432Z,99821.81
2022-11-20T06:11:57.839Z,99820.72
2022-11-20T06:14:26.521Z,99821.38
2022-11-20T06:16:54.906Z,99823.69
2022-11-20T06:19:23.626Z,99815.16
2022-11-20T06:21:52.512Z,99824.41
2022-11-20T06:24:22.240Z,99819.13
2022-11-20T06:26:50.669Z,99810.38
2022-11-20T06:29:19.310Z,99787.53
2022-11-20T06:31:47.808Z,99801.94
2022-11-20T06:34:16.187Z,99816.41
2022-11-20T06:36:44.516Z,99802.56
2022-11-20T06:39:13.335Z,99799.13
2022-11-20T06:41:43.205Z,99807.66
2022-11-20T06:44:11.671Z,99812.13
2022-11-20T06:46:40.016Z,99809.47
2022-11-20T06:49:08.543Z,99808.66
2022-11-20T06:51:36.908Z,99807.75
2022-11-20T06:54:05.259Z,99810.47
2022-11-20T06:56:33.727Z,99787.66
2022-11-20T06:59:06.691Z,99813.69
2022-11-20T07:01:36.172Z,99817.03
2022-11-20T07:04:05.178Z,99821.31
2022-11-20T07:06:33.844Z,99823.81
2022-11-20T07:09:02.758Z,99834.34
2022-11-20T07:11:31.118Z,99834.41
2022-11-20T07:13:59.834Z,99818.22
2022-11-20T07:16:30.062Z,99824.72
2022-11-20T07:18:58.421Z,99822.63
2022-11-20T07:21:26.810Z,99816.28
2022-11-20T07:23:55.169Z,99822.09
2022-11-20T07:26:23.531Z,99811.63
2022-11-20T07:28:51.947Z,99807.81
2022-11-20T07:31:20.297Z,99803.97
2022-11-20T07:33:50.437Z,99799.28
2022-11-20T07:36:18.927Z,99789.56
2022-11-20T07:38:47.307Z,99792.59
2022-11-20T07:41:15.668Z,99797.97
2022-11-20T07:43:44.052Z,99792.31
2022-11-20T07:46:12.372Z,99801.44
2022-11-20T07:48:40.862Z,99805.13
2022-11-20T07:51:10.711Z,99790.06
2022-11-20T07:53:39.149Z,99796.63
2022-11-20T07:56:08.346Z,99786.13
2022-11-20T07:58:36.827Z,99789.19
2022-11-20T08:01:06.699Z,99783.56
2022-11-20T08:03:35.439Z,99773.81
2022-11-20T08:06:04.139Z,99786.16
2022-11-20T08:08:34.942Z,99786.69
2022-11-20T08:11:21.940Z,99783.72
2022-11-20T08:14:07.609Z,99784.09
2022-11-20T08:16:35.968Z,99782.78
2022-11-20T08:19:04.356Z,99785.97
2022-11-20T08:21:38.015Z,99778.47
2022-11-20T08:24:09.303Z,99774.47
2022-11-20T08:26:38.356Z,99775.69
2022-11-20T08:29:07.581Z,99778.03
2022-11-20T08:31:36.327Z,99756.97
2022-11-20T08:34:08.974Z,99770.69
2022-11-20T08:36:38.538Z,99770.47
2022-11-20T08:39:08.353Z,99762.94
2022-11-20T08:41:38.155Z,99754.81
2022-11-20T08:44:08.121Z,99763.84
2022-11-20T08:46:39.312Z,99762.69
2022-11-20T08:49:08.891Z,99746.38
2022-11-20T08:51:37.791Z,99762.31
2022-11-20T08:54:09.392Z,99759.50
2022-11-20T08:56:38.179Z,99760.41
2022-11-20T09:01:55.344Z,99753.97
2022-11-20T09:04:23.732Z,99758.63
2022-11-20T09:06:53.204Z,99755.34
2022-11-20T09:09:23.370Z,99761.09
2022-11-20T09:11:52.294Z,99748.88
2022-11-20T09:14:20.670Z,99758.25
2022-11-20T09:16:49.095Z,99758.72
2022-11-20T09:22:05.929Z,99751.53
2022-11-20T09:24:35.996Z,99746.53
2022-11-20T09:27:06.428Z,99750.97
2022-11-20T09:29:34.897Z,99748.94
2022-11-20T09:32:03.277Z,99739.41
2022-11-20T09:34:31.657Z,99735.34
2022-11-20T09:37:02.978Z,99721.13
2022-11-20T09:39:40.076Z,99731.53
2022-11-20T09:42:30.544Z,99727.00
2022-11-20T09:45:15.253Z,99719.94
2022-11-20T09:47:56.992Z,99721.88
2022-11-20T09:50:34.365Z,99718.16
2022-11-20T09:53:14.511Z,99713.06
2022-11-20T09:55:44.816Z,99698.84
2022-11-20T09:58:18.796Z,99676.56
2022-11-20T10:00:48.171Z,99694.81
2022-11-20T10:03:22.055Z,99709.97
2022-11-20T10:05:53.704Z,99708.94
2022-11-20T10:08:25.585Z,99705.13
2022-11-20T10:11:02.944Z,99713.28
2022-11-20T10:13:43.240Z,99710.31
2022-11-20T10:16:21.109Z,99701.59
2022-11-20T10:19:03.720Z,99699.34
2022-11-20T10:21:41.799Z,99688.63
2022-11-20T10:24:32.418Z,99682.41
2022-11-20T10:27:16.553Z,99688.69
2022-11-20T10:29:48.798Z,99681.50
2022-11-20T10:32:20.588Z,99678.41
2022-11-20T10:34:54.318Z,99682.22
2022-11-20T10:37:26.823Z,99650.19
2022-11-20T10:40:02.145Z,99668.25
2022-11-20T10:42:38.677Z,99657.63
2022-11-20T10:45:20.920Z,99651.59
2022-11-20T10:47:49.281Z,99649.94
2022-11-20T10:50:22.977Z,99657.44
2022-11-20T10:52:58.949Z,99659.56
2022-11-20T10:55:35.398Z,99661.94
2022-11-20T10:58:15.854Z,99657.25
2022-11-20T11:00:44.660Z,99653.72
2022-11-20T11:03:24.953Z,99657.69
2022-11-20T11:06:01.141Z,99654.66
2022-11-20T11:08:34.336Z,99652.56
2022-11-20T11:11:22.934Z,99650.59
2022-11-20T11:13:53.284Z,99640.91
2022-11-20T11:16:26.564Z,99642.91
2022-11-20T11:19:06.172Z,99634.13
2022-11-20T11:21:34.620Z,99637.06
2022-11-20T11:24:34.744Z,99632.22
2022-11-20T11:26:59.575Z,99622.22
2022-11-20T11:29:30.718Z,99622.63
2022-11-20T11:32:07.781Z,99624.19
2022-11-20T11:34:36.776Z,99623.97
2022-11-20T11:37:05.677Z,99617.81
2022-11-20T11:39:35.702Z,99591.91
2022-11-20T11:42:04.542Z,99583.75
2022-11-20T11:44:53.673Z,99601.66
2022-11-20T11:47:27.073Z,99608.66
2022-11-20T11:50:05.063Z,99607.28
2022-11-20T11:52:38.896Z,99594.50
2022-11-20T11:55:13.543Z,99593.44
2022-11-20T11:57:49.638Z,99589.22
2022-11-20T12:00:22.512Z,99585.66
2022-11-20T12:03:05.366Z,99577.72
2022-11-20T12:05:41.021Z,99575.84
2022-11-20T12:08:19.384Z,99573.94
2022-11-20T12:10:54.231Z,99574.13
2022-11-20T12:13:43.267Z,99570.34
2022-11-20T12:16:16.046Z,99567.13
2022-11-20T12:18:45.268Z,99571.91
2022-11-20T12:21:23.116Z,99562.66
2022-11-20T12:24:18.385Z,99566.38
2022-11-20T12:27:04.860Z,99560.81
2022-11-20T12:29:45.692Z,99570.56
2022-11-20T12:32:40.715Z,99571.44
2022-11-20T12:35:26.701Z,99573.44
2022-11-20T12:38:10.508Z,99570.63
2022-11-20T12:40:47.451Z,99557.78
2022-11-20T12:43:38.962Z,99567.31
2022-11-20T12:46:24.342Z,99574.31
2022-11-20T12:49:26.289Z,99565.63
2022-11-20T12:52:10.155Z,99564.19
2022-11-20T12:55:15.785Z,99557.75
2022-11-20T12:57:52.432Z,99561.06
2022-11-20T13:00:22.446Z,99559.94
2022-11-20T13:03:23.609Z,99551.97
2022-11-20T13:06:02.611Z,99559.81
2022-11-20T13:08:35.446Z,99546.56
2022-11-20T13:11:12.131Z,99546.38
2022-11-20T13:13:52.088Z,99543.59
2022-11-20T13:16:28.875Z,99539.13
2022-11-20T13:18:57.518Z,99522.16
2022-11-20T13:21:39.850Z,99525.03
2022-11-20T13:24:08.827Z,99511.94
2022-11-20T13:26:37.295Z,99512.63
2022-11-20T13:29:12.020Z,99497.88
2022-11-20T13:31:46.149Z,99503.63
2022-11-20T13:34:25.654Z,99494.41
2022-11-20T13:36:57.739Z,99498.06
2022-11-20T13:39:30.591Z,99505.28
2022-11-20T13:42:00.342Z,99496.31
2022-11-20T13:44:36.649Z,99499.00
2022-11-20T13:47:05.035Z,99491.84
2022-11-20T13:49:41.022Z,99475.56
2022-11-20T13:52:41.478Z,99480.81
2022-11-20T13:55:19.191Z,99490.78
2022-11-20T13:58:18.178Z,99484.88
2022-11-20T14:00:51.455Z,99483.22
2022-11-20T14:03:44.180Z,99482.53
2022-11-20T14:06:17.106Z,99482.78
2022-11-20T14:08:51.860Z,99472.56
2022-11-20T14:11:21.979Z,99479.47
2022-11-20T14:13:59.266Z,99479.22
2022-11-20T14:16:29.601Z,99476.84
2022-11-20T14:18:59.664Z,99471.91
2022-11-20T14:21:30.666Z,99467.38
2022-11-20T14:24:14.030Z,99456.00
2022-11-20T14:26:45.801Z,99456.00
2022-11-20T14:29:15.770Z,99460.56
2022-11-20T14:31:47.869Z,99457.25
2022-11-20T14:34:22.905Z,99447.97
2022-11-20T14:36:54.790Z,99452.53
2022-11-20T14:39:27.853Z,99457.34
2022-11-20T14:41:56.765Z,99455.53
2022-11-20T14:44:29.753Z,99460.44
2022-11-20T14:46:59.335Z,99458.50
2022-11-20T14:49:28.878Z,99454.75
2022-11-20T14:52:05.043Z,99452.75
2022-11-20T14:54:34.955Z,99452.44
2022-11-20T14:57:05.523Z,99444.41
2022-11-20T14:59:35.643Z,99450.31
2022-11-20T15:02:07.948Z,99437.38
2022-11-20T15:04:47.610Z,99432.28
2022-11-20T15:07:27.260Z,99428.91
2022-11-20T15:10:08.703Z,99441.88
2022-11-20T15:12:39.798Z,99436.34
2022-11-20T15:15:13.402Z,99446.47
2022-11-20T15:17:43.322Z,99446.00
2022-11-20T15:20:16.222Z,99450.81
2022-11-20T15:22:44.587Z,99449.88
2022-11-20T15:25:19.130Z,99448.03
2022-11-20T15:27:50.721Z,99451.84
2022-11-20T15:30:21.326Z,99451.38
2022-11-20T15:32:50.589Z,99454.03
2022-11-20T15:35:19.143Z,99445.59
2022-11-20T15:37:47.508Z,99444.44
2022-11-20T15:40:17.619Z,99456.47
2022-11-20T15:43:06.744Z,99452.44
2022-11-20T15:45:41.070Z,99449.59
2022-11-20T15:48:14.212Z,99446.25
2022-11-20T15:51:00.986Z,99443.66
2022-11-20T15:53:29.542Z,99451.72
2022-11-20T15:55:59.375Z,99450.06
2022-11-20T15:58:28.190Z,99443.88
2022-11-20T16:00:56.853Z,99444.13
2022-11-20T16:03:25.524Z,99444.25
2022-11-20T16:05:53.910Z,99436.66
2022-11-20T16:08:22.262Z,99444.34
2022-11-20T16:10:50.755Z,99441.88
2022-11-20T16:13:38.090Z,99446.47
2022-11-20T16:16:10.361Z,99434.84
2022-11-20T16:18:38.771Z,99435.69
2022-11-20T16:21:07.135Z,99431.50
2022-11-20T16:23:35.564Z,99435.31
2022-11-20T16:26:12.526Z,99441.00
2022-11-20T16:28:42.557Z,99434.34
2022-11-20T16:31:12.872Z,99440.03
2022-11-20T16:33:41.514Z,99430.03
2022-11-20T16:36:11.866Z,99442.38
2022-11-20T16:38:40.287Z,99437.84
2022-11-20T16:41:14.618Z,99434.75
2022-11-20T16:43:52.183Z,99433.16
2022-11-20T16:46:21.969Z,99433.00
2022-11-20T16:48:55.717Z,99424.47
2022-11-20T16:51:25.046Z,99423.75
2022-11-20T16:53:56.074Z,99429.28
2022-11-20T16:56:25.728Z,99427.84
2022-11-20T16:58:57.468Z,99425.47
2022-11-20T17:01:27.722Z,99421.41
2022-11-20T17:03:58.057Z,99436.25
2022-11-20T17:06:28.369Z,99419.03
2022-11-20T17:08:57.504Z,99410.34
2022-11-20T17:11:26.957Z,99426.34
2022-11-20T17:14:00.800Z,99429.41
2022-11-20T17:16:29.525Z,99434.84
2022-11-20T17:19:02.995Z,99428.84
2022-11-20T17:21:33.032Z,99438.94
2022-11-20T17:24:03.615Z,99437.16
2022-11-20T17:26:32.635Z,99446.97
2022-11-20T17:29:04.892Z,99448.84
2022-11-20T17:31:34.863Z,99451.81
2022-11-20T17:34:04.270Z,99452.03
2022-11-20T17:36:33.551Z,99444.75
2022-11-20T17:39:02.180Z,99457.03
2022-11-20T17:41:31.560Z,99456.44
2022-11-20T17:44:02.355Z,99445.00
2022-11-20T17:46:33.715Z,99448.22
2022-11-20T17:49:02.878Z,99449.38
2022-11-20T17:51:33.229Z,99454.91
2022-11-20T17:54:03.445Z,99431.59
2022-11-20T17:56:50.275Z,99447.09
2022-11-20T17:59:20.935Z,99460.25
2022-11-20T18:01:49.541Z,99462.34
2022-11-20T18:04:18.107Z,99460.03
2022-11-20T18:06:47.106Z,99458.59
2022-11-20T18:09:16.162Z,99451.94
2022-11-20T18:11:45.976Z,99446.09
2022-11-20T18:14:32.999Z,99453.16
2022-11-20T18:17:05.895Z,99456.09
2022-11-20T18:19:41.154Z,99455.25
2022-11-20T18:22:15.536Z,99446.63
2022-11-20T18:24:45.756Z,99445.78
2022-11-20T18:27:16.976Z,99434.00
2022-11-20T18:29:48.721Z,99446.09
2022-11-20T18:32:19.816Z,99442.75
2022-11-20T18:34:49.122Z,99440.25
2022-11-20T18:37:18.023Z,99439.72
2022-11-20T18:39:47.471Z,99441.81
2022-11-20T18:42:35.050Z,99441.94
2022-11-20T18:45:04.676Z,99443.59
2022-11-20T18:47:38.192Z,99438.59
2022-11-20T18:50:09.155Z,99445.69
2022-11-20T18:52:41.290Z,99451.09
2022-11-20T18:55:11.276Z,99460.44
2022-11-20T18:57:39.700Z,99452.03
2022-11-20T19:00:10.158Z,99451.81
2022-11-20T19:02:42.668Z,99461.31
2022-11-20T19:05:12.293Z,99459.63
2022-11-20T19:07:40.932Z,99457.03
2022-11-20T19:10:09.757Z,99452.63
2022-11-20T19:12:38.743Z,99440.69
2022-11-20T19:15:08.603Z,99432.13
2022-11-20T19:17:37.263Z,99434.63
2022-11-20T19:20:08.955Z,99437.13
2022-11-20T19:22:38.173Z,99443.38
2022-11-20T19:25:07.513Z,99450.38
2022-11-20T19:27:36.176Z,99452.97
2022-11-20T19:30:06.203Z,99453.16
2022-11-20T19:32:35.469Z,99451.72
2022-11-20T19:35:04.135Z,99460.25
2022-11-20T19:37:35.836Z,99447.53
2022-11-20T19:40:05.618Z,99464.94
2022-11-20T19:42:34.129Z,99458.88
2022-11-20T19:45:24.704Z,99452.31
2022-11-20T19:48:07.207Z,99460.66
2022-11-20T19:50:36.217Z,99454.41
2022-11-20T19:53:04.737Z,99456.72
2022-11-20T19:55:33.150Z,99450.78
2022-11-20T19:58:02.662Z,99452.44
2022-11-20T20:00:33.089Z,99451.19
2022-11-20T20:03:01.976Z,99459.59
2022-11-20T20:05:30.376Z,99469.94
2022-11-20T20:07:58.846Z,99469.00
2022-11-20T20:10:27.215Z,99480.13
2022-11-20T20:12:55.851Z,99479.19
2022-11-20T20:15:24.228Z,99489.69
2022-11-20T20:17:55.073Z,99484.41
2022-11-20T20:20:24.196Z,99488.88
2022-11-20T20:22:52.597Z,99487.94
2022-11-20T20:25:21.113Z,99486.28
2022-11-20T20:27:49.655Z,99467.31
2022-11-20T20:30:18.217Z,99469.81
2022-11-20T20:32:48.856Z,99465.66
2022-11-20T20:35:20.710Z,99475.25
2022-11-20T20:37:49.476Z,99476.72
2022-11-20T20:40:19.257Z,99461.91
2022-11-20T20:42:47.833Z,99468.38
2022-11-20T20:45:16.290Z,99472.94
2022-11-20T20:47:44.732Z,99466.91
2022-11-20T20:50:14.175Z,99461.72
2022-11-20T20:52:44.102Z,99462.53
2022-11-20T20:55:12.919Z,99456.72
2022-11-20T20:57:42.004Z,99453.16
2022-11-20T21:00:11.488Z,99460.97
2022-11-20T21:02:39.973Z,99460.03
2022-11-20T21:05:08.944Z,99464.41
2022-11-20T21:07:58.587Z,99465.25
2022-11-20T21:10:28.608Z,99468.78
2022-11-20T21:12:57.012Z,99456.06
2022-11-20T21:15:25.707Z,99453.78
2022-11-20T21:17:54.113Z,99464.19
2022-11-20T21:20:39.588Z,99453.06
2022-11-20T21:23:11.394Z,99454.00
2022-11-20T21:25:41.632Z,99459.41
2022-11-20T21:28:13.167Z,99461.28
2022-11-20T21:30:45.559Z,99464.19
2022-11-20T21:33:13.992Z,99460.22
2022-11-20T21:35:42.738Z,99458.88
2022-11-20T21:38:11.091Z,99463.34
2022-11-20T21:40:40.973Z,99458.94
2022-11-20T21:43:09.912Z,99451.38
2022-11-20T21:45:38.349Z,99467.34
2022-11-20T21:48:07.574Z,99458.91
2022-11-20T21:50:36.507Z,99447.66
2022-11-20T21:53:05.109Z,99441.41
2022-11-20T21:55:33.540Z,99448.50
2022-11-20T21:58:03.346Z,99446.75
2022-11-20T22:00:31.855Z,99443.38
2022-11-20T22:03:00.241Z,99444.31
2022-11-20T22:05:28.701Z,99437.44
2022-11-20T22:07:57.028Z,99435.88
2022-11-20T22:10:25.362Z,99445.56
2022-11-20T22:13:14.936Z,99441.38
2022-11-20T22:15:59.700Z,99423.03
2022-11-20T22:18:29.935Z,99433.78
2022-11-20T22:20:58.345Z,99433.69
2022-11-20T22:23:27.261Z,99434.72
2022-11-20T22:25:56.249Z,99437.41
2022-11-20T22:28:25.285Z,99437.63
2022-11-20T22:30:59.820Z,99442.16
2022-11-20T22:33:29.686Z,99437.16
2022-11-20T22:36:06.142Z,99443.50
2022-11-20T22:38:39.303Z,99436.94
2022-11-20T22:41:10.329Z,99450.00
2022-11-20T22:43:40.368Z,99443.34
2022-11-20T22:46:12.838Z,99447.53
2022-11-20T22:48:43.335Z,99443.34
2022-11-20T22:51:14.417Z,99439.19
2022-11-20T22:53:44.474Z,99440.94
2022-11-20T22:56:15.649Z,99440.22
2022-11-20T22:58:46.908Z,99433.34
2022-11-20T23:01:22.325Z,99438.72
2022-11-20T23:03:53.504Z,99431.97
2022-11-20T23:06:22.907Z,99434.19
2022-11-20T23:08:52.121Z,99424.41
2022-11-20T23:11:22.484Z,99428.53
2022-11-20T23:13:56.373Z,99415.78
2022-11-20T23:16:28.052Z,99421.38
2022-11-20T23:18:57.650Z,99408.88
2022-11-20T23:21:30.730Z,99410.09
2022-11-20T23:24:02.185Z,99406.13
2022-11-20T23:26:35.542Z,99391.03
2022-11-20T23:29:04.197Z,99395.47
2022-11-20T23:31:36.253Z,99385.41
2022-11-20T23:34:05.058Z,99380.69
2022-11-20T23:36:34.357Z,99378.78
2022-11-20T23:39:02.830Z,99371.50
2022-11-20T23:41:32.169Z,99374.28
2022-11-20T23:44:01.821Z,99368.56
2022-11-20T23:46:30.312Z,99382.13
2022-11-20T23:49:01.016Z,99376.00
2022-11-20T23:51:30.818Z,99381.94
2022-11-20T23:54:04.528Z,99373.84
2022-11-20T23:56:34.141Z,99380.28
2022-11-20T23:59:03.295Z,99368.31
